sensor_id;sensor_type;location;lat;lon;timestamp;pressure;altitude;pressure_sealevel;temperature;humidity
62201;BME280;48197;42.732;27.192;2023-05-19T00:01:41;99429.75;;;15.01;100.00
62201;BME280;48197;42.732;27.192;2023-05-19T00:04:13;99434.75;;;15.06;100.00
62201;BME280;48197;42.732;27.192;2023-05-19T00:06:41;99429.66;;;15.04;100.00
62201;BME280;48197;42.732;27.192;2023-05-19T00:09:09;99434.53;;;15.00;100.00
62201;BME280;48197;42.732;27.192;2023-05-19T00:11:37;99431.84;;;14.97;100.00
62201;BME280;48197;42.732;27.192;2023-05-19T00:14:05;99431.06;;;14.96;100.00
62201;BME280;48197;42.732;27.192;2023-05-19T00:16:33;99415.81;;;14.88;100.00
62201;BME280;48197;42.732;27.192;2023-05-19T00:19:01;99427.91;;;14.81;100.00
62201;BME280;48197;42.732;27.192;2023-05-19T00:21:29;99425.47;;;14.83;100.00
62201;BME280;48197;42.732;27.192;2023-05-19T00:23:57;99424.59;;;14.86;100.00
62201;BME280;48197;42.732;27.192;2023-05-19T00:26:23;99429.94;;;14.81;100.00
62201;BME280;48197;42.732;27.192;2023-05-19T00:28:50;99428.00;;;14.78;100.00
62201;BME280;48197;42.732;27.192;2023-05-19T00:31:19;99426.91;;;14.75;100.00
62201;BME280;48197;42.732;27.192;2023-05-19T00:33:46;99427.22;;;14.77;100.00
62201;BME280;48197;42.732;27.192;2023-05-19T00:36:13;99434.00;;;14.76;100.00
62201;BME280;48197;42.732;27.192;2023-05-19T00:38:40;99425.66;;;14.76;100.00
62201;BME280;48197;42.732;27.192;2023-05-19T00:41:07;99430.09;;;14.74;100.00
62201;BME280;48197;42.732;27.192;2023-05-19T00:43:34;99429.13;;;14.80;100.00
62201;BME280;48197;42.732;27.192;2023-05-19T00:46:02;99429.94;;;14.81;100.00
62201;BME280;48197;42.732;27.192;2023-05-19T00:48:29;99434.00;;;14.76;100.00
62201;BME280;48197;42.732;27.192;2023-05-19T00:50:56;99426.97;;;14.72;100.00
62201;BME280;48197;42.732;27.192;2023-05-19T00:53:27;99429.69;;;14.75;100.00
62201;BME280;48197;42.732;27.192;2023-05-19T00:55:55;99426.56;;;14.73;100.00
62201;BME280;48197;42.732;27.192;2023-05-19T00:58:22;99429.25;;;14.77;100.00
62201;BME280;48197;42.732;27.192;2023-05-19T01:00:57;99429.00;;;14.71;100.00
62201;BME280;48197;42.732;27.192;2023-05-19T01:03:33;99432.88;;;14.74;100.00
62201;BME280;48197;42.732;27.192;2023-05-19T01:06:03;99441.66;;;14.72;100.00
62201;BME280;48197;42.732;27.192;2023-05-19T01:08:34;99435.59;;;14.77;100.00
62201;BME280;48197;42.732;27.192;2023-05-19T01:11:01;99424.88;;;14.76;100.00
62201;BME280;48197;42.732;27.192;2023-05-19T01:13:28;99433.78;;;14.70;100.00
62201;BME280;48197;42.732;27.192;2023-05-19T01:18:33;99449.56;;;14.74;100.00
62201;BME280;48197;42.732;27.192;2023-05-19T01:32:15;99450.91;;;14.69;100.00
62201;BME280;48197;42.732;27.192;2023-05-19T01:34:45;99450.81;;;14.73;100.00
62201;BME280;48197;42.732;27.192;2023-05-19T01:37:14;99424.03;;;14.79;100.00
62201;BME280;48197;42.732;27.192;2023-05-19T01:39:43;99436.41;;;14.90;100.00
62201;BME280;48197;42.732;27.192;2023-05-19T01:42:10;99464.00;;;14.98;100.00
62201;BME280;48197;42.732;27.192;2023-05-19T01:44:38;99466.66;;;14.88;100.00
62201;BME280;48197;42.732;27.192;2023-05-19T01:47:05;99468.97;;;14.77;100.00
62201;BME280;48197;42.732;27.192;2023-05-19T01:49:32;99466.56;;;14.63;100.00
62201;BME280;48197;42.732;27.192;2023-05-19T01:51:59;99471.00;;;14.60;100.00
62201;BME280;48197;42.732;27.192;2023-05-19T01:54:26;99467.78;;;14.62;100.00
62201;BME280;48197;42.732;27.192;2023-05-19T01:56:59;99477.69;;;14.63;100.00
62201;BME280;48197;42.732;27.192;2023-05-19T01:59:35;99486.47;;;14.61;100.00
62201;BME280;48197;42.732;27.192;2023-05-19T02:02:04;99481.44;;;14.56;100.00
62201;BME280;48197;42.732;27.192;2023-05-19T02:04:46;99485.78;;;14.57;100.00
62201;BME280;48197;42.732;27.192;2023-05-19T02:07:20;99488.63;;;14.54;100.00
62201;BME280;48197;42.732;27.192;2023-05-19T02:12:39;99491.50;;;14.50;100.00
62201;BME280;48197;42.732;27.192;2023-05-19T02:15:11;99485.50;;;14.52;100.00
62201;BME280;48197;42.732;27.192;2023-05-19T02:17:41;99489.16;;;14.48;100.00
62201;BME280;48197;42.732;27.192;2023-05-19T02:20:09;99489.78;;;14.40;100.00
62201;BME280;48197;42.732;27.192;2023-05-19T02:22:37;99503.44;;;14.34;100.00
62201;BME280;48197;42.732;27.192;2023-05-19T02:25:04;99500.72;;;14.30;100.00
62201;BME280;48197;42.732;27.192;2023-05-19T02:27:31;99506.38;;;14.27;100.00
62201;BME280;48197;42.732;27.192;2023-05-19T02:29:58;99506.13;;;14.21;100.00
62201;BME280;48197;42.732;27.192;2023-05-19T02:32:25;99505.78;;;14.19;100.00
62201;BME280;48197;42.732;27.192;2023-05-19T02:34:55;99509.06;;;14.14;100.00
62201;BME280;48197;42.732;27.192;2023-05-19T02:37:22;99505.69;;;14.06;100.00
62201;BME280;48197;42.732;27.192;2023-05-19T02:39:50;99511.94;;;14.11;100.00
62201;BME280;48197;42.732;27.192;2023-05-19T02:42:17;99509.00;;;14.18;100.00
62201;BME280;48197;42.732;27.192;2023-05-19T02:44:44;99519.41;;;14.14;100.00
62201;BME280;48197;42.732;27.192;2023-05-19T02:47:11;99526.34;;;14.05;100.00
62201;BME280;48197;42.732;27.192;2023-05-19T02:49:39;99516.53;;;14.01;100.00
62201;BME280;48197;42.732;27.192;2023-05-19T02:52:05;99520.09;;;14.01;100.00
62201;BME280;48197;42.732;27.192;2023-05-19T02:54:32;99522.88;;;14.01;100.00
62201;BME280;48197;42.732;27.192;2023-05-19T02:57:00;99528.00;;;14.03;100.00
62201;BME280;48197;42.732;27.192;2023-05-19T02:59:27;99525.66;;;14.01;100.00
62201;BME280;48197;42.732;27.192;2023-05-19T03:02:00;99521.31;;;14.00;100.00
62201;BME280;48197;42.732;27.192;2023-05-19T03:04:27;99523.31;;;14.00;100.00
62201;BME280;48197;42.732;27.192;2023-05-19T03:06:55;99526.34;;;14.05;100.00
62201;BME280;48197;42.732;27.192;2023-05-19T03:09:22;99513.84;;;14.14;100.00
62201;BME280;48197;42.732;27.192;2023-05-19T03:11:49;99519.56;;;14.23;100.00
62201;BME280;48197;42.732;27.192;2023-05-19T03:14:16;99519.75;;;14.32;100.00
62201;BME280;48197;42.732;27.192;2023-05-19T03:16:43;99518.66;;;14.29;100.00
62201;BME280;48197;42.732;27.192;2023-05-19T03:19:10;99524.00;;;14.37;100.00
62201;BME280;48197;42.732;27.192;2023-05-19T03:21:36;99527.38;;;14.44;100.00
62201;BME280;48197;42.732;27.192;2023-05-19T03:24:03;99527.72;;;14.46;100.00
62201;BME280;48197;42.732;27.192;2023-05-19T03:26:30;99524.19;;;14.46;100.00
62201;BME280;48197;42.732;27.192;2023-05-19T03:28:56;99536.75;;;14.50;100.00
62201;BME280;48197;42.732;27.192;2023-05-19T03:31:23;99537.47;;;14.55;100.00
62201;BME280;48197;42.732;27.192;2023-05-19T03:33:50;99544.16;;;14.57;100.00
62201;BME280;48197;42.732;27.192;2023-05-19T03:36:15;99535.06;;;14.57;100.00
62201;BME280;48197;42.732;27.192;2023-05-19T03:38:42;99531.84;;;14.58;100.00
62201;BME280;48197;42.732;27.192;2023-05-19T03:41:09;99529.84;;;14.59;100.00
62201;BME280;48197;42.732;27.192;2023-05-19T03:43:36;99535.41;;;14.59;100.00
62201;BME280;48197;42.732;27.192;2023-05-19T03:46:03;99546.53;;;14.59;100.00
62201;BME280;48197;42.732;27.192;2023-05-19T03:48:29;99548.88;;;14.60;100.00
62201;BME280;48197;42.732;27.192;2023-05-19T03:50:56;99548.44;;;14.62;100.00
62201;BME280;48197;42.732;27.192;2023-05-19T03:53:23;99545.47;;;14.69;100.00
62201;BME280;48197;42.732;27.192;2023-05-19T03:55:50;99546.84;;;14.77;100.00
62201;BME280;48197;42.732;27.192;2023-05-19T03:58:17;99541.53;;;14.83;100.00
62201;BME280;48197;42.732;27.192;2023-05-19T04:00:44;99545.94;;;14.97;100.00
62201;BME280;48197;42.732;27.192;2023-05-19T04:03:11;99555.59;;;15.08;100.00
62201;BME280;48197;42.732;27.192;2023-05-19T04:05:38;99551.59;;;15.22;100.00
62201;BME280;48197;42.732;27.192;2023-05-19T04:11:07;99561.13;;;15.38;100.00
62201;BME280;48197;42.732;27.192;2023-05-19T04:13:34;99564.91;;;15.44;100.00
62201;BME280;48197;42.732;27.192;2023-05-19T04:16:01;99549.00;;;15.44;100.00
62201;BME280;48197;42.732;27.192;2023-05-19T04:18:28;99563.41;;;15.56;100.00
62201;BME280;48197;42.732;27.192;2023-05-19T04:20:54;99555.59;;;15.63;100.00
62201;BME280;48197;42.732;27.192;2023-05-19T04:23:21;99563.88;;;15.67;100.00
62201;BME280;48197;42.732;27.192;2023-05-19T04:25:48;99554.09;;;15.75;100.00
62201;BME280;48197;42.732;27.192;2023-05-19T04:28:15;99565.47;;;15.81;100.00
62201;BME280;48197;42.732;27.192;2023-05-19T04:30:43;99564.50;;;15.87;100.00
62201;BME280;48197;42.732;27.192;2023-05-19T04:33:11;99558.34;;;15.92;100.00
62201;BME280;48197;42.732;27.192;2023-05-19T04:35:38;99563.69;;;16.00;100.00
62201;BME280;48197;42.732;27.192;2023-05-19T04:38:05;99573.63;;;16.01;100.00
62201;BME280;48197;42.732;27.192;2023-05-19T04:40:32;99573.28;;;15.99;100.00
62201;BME280;48197;42.732;27.192;2023-05-19T04:42:59;99574.97;;;15.96;100.00
62201;BME280;48197;42.732;27.192;2023-05-19T04:45:27;99581.75;;;15.95;100.00
62201;BME280;48197;42.732;27.192;2023-05-19T04:47:54;99579.31;;;15.97;100.00
62201;BME280;48197;42.732;27.192;2023-05-19T04:50:23;99589.03;;;16.05;100.00
62201;BME280;48197;42.732;27.192;2023-05-19T04:52:50;99591.03;;;16.18;100.00
62201;BME280;48197;42.732;27.192;2023-05-19T04:55:17;99589.69;;;16.22;100.00
62201;BME280;48197;42.732;27.192;2023-05-19T04:57:45;99581.66;;;16.24;100.00
62201;BME280;48197;42.732;27.192;2023-05-19T05:00:11;99577.63;;;16.25;100.00
62201;BME280;48197;42.732;27.192;2023-05-19T05:02:39;99579.22;;;16.26;100.00
62201;BME280;48197;42.732;27.192;2023-05-19T05:05:08;99577.88;;;16.31;100.00
62201;BME280;48197;42.732;27.192;2023-05-19T05:07:35;99595.94;;;16.39;100.00
62201;BME280;48197;42.732;27.192;2023-05-19T05:10:01;99591.78;;;16.44;100.00
62201;BME280;48197;42.732;27.192;2023-05-19T05:12:29;99600.59;;;16.55;100.00
62201;BME280;48197;42.732;27.192;2023-05-19T05:14:56;99600.91;;;16.70;100.00
62201;BME280;48197;42.732;27.192;2023-05-19T05:17:23;99593.41;;;16.80;100.00
62201;BME280;48197;42.732;27.192;2023-05-19T05:19:51;99609.72;;;16.81;100.00
62201;BME280;48197;42.732;27.192;2023-05-19T05:22:18;99610.97;;;16.80;100.00
62201;BME280;48197;42.732;27.192;2023-05-19T05:24:45;99609.50;;;16.88;100.00
62201;BME280;48197;42.732;27.192;2023-05-19T05:27:12;99609.13;;;16.99;100.00
62201;BME280;48197;42.732;27.192;2023-05-19T05:29:40;99614.72;;;16.99;100.00
62201;BME280;48197;42.732;27.192;2023-05-19T05:32:07;99599.09;;;16.89;100.00
62201;BME280;48197;42.732;27.192;2023-05-19T05:34:34;99601.53;;;17.00;100.00
62201;BME280;48197;42.732;27.192;2023-05-19T05:37:02;99603.44;;;17.03;100.00
62201;BME280;48197;42.732;27.192;2023-05-19T05:39:29;99611.88;;;17.12;100.00
62201;BME280;48197;42.732;27.192;2023-05-19T05:41:57;99612.59;;;17.25;100.00
62201;BME280;48197;42.732;27.192;2023-05-19T05:44:24;99614.63;;;17.47;100.00
62201;BME280;48197;42.732;27.192;2023-05-19T05:53:01;99617.25;;;17.63;100.00
62201;BME280;48197;42.732;27.192;2023-05-19T05:55:29;99623.47;;;17.67;100.00
62201;BME280;48197;42.732;27.192;2023-05-19T05:57:56;99628.88;;;17.62;100.00
62201;BME280;48197;42.732;27.192;2023-05-19T06:00:23;99615.88;;;17.68;100.00
62201;BME280;48197;42.732;27.192;2023-05-19T06:02:53;99626.78;;;17.75;100.00
62201;BME280;48197;42.732;27.192;2023-05-19T06:05:20;99638.56;;;17.70;100.00
62201;BME280;48197;42.732;27.192;2023-05-19T06:07:46;99631.28;;;17.72;100.00
62201;BME280;48197;42.732;27.192;2023-05-19T06:10:14;99641.34;;;17.92;100.00
62201;BME280;48197;42.732;27.192;2023-05-19T06:12:40;99646.06;;;17.95;100.00
62201;BME280;48197;42.732;27.192;2023-05-19T06:15:08;99643.94;;;18.08;100.00
62201;BME280;48197;42.732;27.192;2023-05-19T06:17:35;99659.78;;;18.11;100.00
62201;BME280;48197;42.732;27.192;2023-05-19T06:20:03;99652.69;;;17.88;100.00
62201;BME280;48197;42.732;27.192;2023-05-19T06:22:33;99663.97;;;17.63;100.00
62201;BME280;48197;42.732;27.192;2023-05-19T06:25:00;99668.97;;;17.46;100.00
62201;BME280;48197;42.732;27.192;2023-05-19T06:27:27;99668.22;;;17.32;100.00
62201;BME280;48197;42.732;27.192;2023-05-19T06:29:53;99663.50;;;17.42;100.00
62201;BME280;48197;42.732;27.192;2023-05-19T06:32:20;99667.75;;;17.34;100.00
62201;BME280;48197;42.732;27.192;2023-05-19T06:34:47;99676.19;;;17.56;100.00
62201;BME280;48197;42.732;27.192;2023-05-19T06:37:20;99666.38;;;17.73;100.00
62201;BME280;48197;42.732;27.192;2023-05-19T06:39:48;99668.25;;;17.99;100.00
62201;BME280;48197;42.732;27.192;2023-05-19T06:42:18;99667.50;;;18.29;100.00
62201;BME280;48197;42.732;27.192;2023-05-19T06:44:48;99676.75;;;18.80;100.00
62201;BME280;48197;42.732;27.192;2023-05-19T06:47:15;99679.66;;;19.26;100.00
62201;BME280;48197;42.732;27.192;2023-05-19T06:49:44;99680.75;;;19.47;100.00
62201;BME280;48197;42.732;27.192;2023-05-19T06:52:11;99686.53;;;19.71;100.00
62201;BME280;48197;42.732;27.192;2023-05-19T06:54:38;99682.31;;;19.75;100.00
62201;BME280;48197;42.732;27.192;2023-05-19T06:57:05;99686.22;;;19.78;100.00
62201;BME280;48197;42.732;27.192;2023-05-19T06:59:32;99689.19;;;19.93;100.00
62201;BME280;48197;42.732;27.192;2023-05-19T07:01:57;99691.00;;;20.05;100.00
62201;BME280;48197;42.732;27.192;2023-05-19T07:04:24;99696.31;;;20.03;100.00
62201;BME280;48197;42.732;27.192;2023-05-19T07:06:52;99692.72;;;20.03;100.00
62201;BME280;48197;42.732;27.192;2023-05-19T07:09:19;99696.59;;;20.24;100.00
62201;BME280;48197;42.732;27.192;2023-05-19T07:11:46;99693.75;;;20.33;100.00
62201;BME280;48197;42.732;27.192;2023-05-19T07:14:12;99700.13;;;20.43;100.00
62201;BME280;48197;42.732;27.192;2023-05-19T07:16:39;99689.66;;;20.86;100.00
62201;BME280;48197;42.732;27.192;2023-05-19T07:19:06;99689.78;;;21.78;100.00
62201;BME280;48197;42.732;27.192;2023-05-19T07:21:33;99693.25;;;22.77;96.29
62201;BME280;48197;42.732;27.192;2023-05-19T07:24:00;99694.75;;;23.49;93.76
62201;BME280;48197;42.732;27.192;2023-05-19T07:26:27;99691.75;;;23.79;90.16
62201;BME280;48197;42.732;27.192;2023-05-19T07:28:54;99694.22;;;23.92;88.58
62201;BME280;48197;42.732;27.192;2023-05-19T07:31:22;99701.66;;;23.69;80.13
62201;BME280;48197;42.732;27.192;2023-05-19T07:33:48;99688.81;;;23.68;80.64
62201;BME280;48197;42.732;27.192;2023-05-19T07:36:15;99703.25;;;24.22;88.09
62201;BME280;48197;42.732;27.192;2023-05-19T07:38:42;99698.28;;;25.18;82.56
62201;BME280;48197;42.732;27.192;2023-05-19T07:41:09;99690.97;;;25.49;70.66
62201;BME280;48197;42.732;27.192;2023-05-19T07:43:36;99694.00;;;24.91;72.13
62201;BME280;48197;42.732;27.192;2023-05-19T07:46:04;99700.47;;;24.97;73.77
62201;BME280;48197;42.732;27.192;2023-05-19T07:48:31;99695.19;;;25.76;73.34
62201;BME280;48197;42.732;27.192;2023-05-19T07:50:58;99700.69;;;26.19;67.45
62201;BME280;48197;42.732;27.192;2023-05-19T07:53:25;99712.00;;;26.36;67.10
62201;BME280;48197;42.732;27.192;2023-05-19T07:55:52;99710.34;;;25.73;61.15
62201;BME280;48197;42.732;27.192;2023-05-19T07:58:19;99711.81;;;25.51;63.79
62201;BME280;48197;42.732;27.192;2023-05-19T08:00:46;99701.63;;;25.87;63.37
62201;BME280;48197;42.732;27.192;2023-05-19T08:03:13;99714.19;;;25.70;62.04
62201;BME280;48197;42.732;27.192;2023-05-19T08:05:43;99721.84;;;25.52;62.88
62201;BME280;48197;42.732;27.192;2023-05-19T08:08:11;99717.53;;;25.19;66.50
62201;BME280;48197;42.732;27.192;2023-05-19T08:10:38;99721.16;;;25.20;64.10
62201;BME280;48197;42.732;27.192;2023-05-19T08:13:05;99716.47;;;25.05;63.66
62201;BME280;48197;42.732;27.192;2023-05-19T08:15:32;99705.63;;;25.41;66.10
62201;BME280;48197;42.732;27.192;2023-05-19T08:17:59;99706.44;;;25.64;56.28
62201;BME280;48197;42.732;27.192;2023-05-19T08:20:27;99726.09;;;24.50;61.65
62201;BME280;48197;42.732;27.192;2023-05-19T08:22:53;99725.38;;;24.93;64.51
62201;BME280;48197;42.732;27.192;2023-05-19T08:25:20;99714.56;;;26.11;59.90
62201;BME280;48197;42.732;27.192;2023-05-19T08:27:47;99726.69;;;26.79;64.33
62201;BME280;48197;42.732;27.192;2023-05-19T08:30:17;99719.69;;;27.14;57.20
62201;BME280;48197;42.732;27.192;2023-05-19T08:32:44;99718.38;;;27.21;58.23
62201;BME280;48197;42.732;27.192;2023-05-19T08:35:11;99717.16;;;26.94;60.79
62201;BME280;48197;42.732;27.192;2023-05-19T08:37:38;99716.41;;;26.76;56.56
62201;BME280;48197;42.732;27.192;2023-05-19T08:40:05;99710.97;;;26.67;55.79
62201;BME280;48197;42.732;27.192;2023-05-19T08:42:34;99715.59;;;26.31;58.63
62201;BME280;48197;42.732;27.192;2023-05-19T08:45:01;99705.06;;;26.31;61.49
62201;BME280;48197;42.732;27.192;2023-05-19T08:47:28;99723.06;;;26.05;54.49
62201;BME280;48197;42.732;27.192;2023-05-19T08:49:58;99715.19;;;25.66;57.75
62201;BME280;48197;42.732;27.192;2023-05-19T08:55:13;99704.63;;;25.50;56.42
62201;BME280;48197;42.732;27.192;2023-05-19T08:57:40;99709.53;;;25.61;59.27
62201;BME280;48197;42.732;27.192;2023-05-19T09:00:07;99708.03;;;25.77;58.16
62201;BME280;48197;42.732;27.192;2023-05-19T09:02:37;99712.34;;;25.55;56.36
62201;BME280;48197;42.732;27.192;2023-05-19T09:05:04;99718.41;;;25.91;60.22
62201;BME280;48197;42.732;27.192;2023-05-19T09:07:32;99731.84;;;24.99;57.20
62201;BME280;48197;42.732;27.192;2023-05-19T09:10:01;99713.38;;;24.08;58.87
62201;BME280;48197;42.732;27.192;2023-05-19T09:12:27;99712.41;;;23.70;57.44
62201;BME280;48197;42.732;27.192;2023-05-19T09:14:54;99722.66;;;24.72;60.13
62201;BME280;48197;42.732;27.192;2023-05-19T09:17:22;99714.56;;;25.34;59.41
62201;BME280;48197;42.732;27.192;2023-05-19T09:19:49;99709.66;;;26.12;57.52
62201;BME280;48197;42.732;27.192;2023-05-19T09:22:16;99708.94;;;26.56;56.94
62201;BME280;48197;42.732;27.192;2023-05-19T09:24:46;99707.13;;;26.70;56.91
62201;BME280;48197;42.732;27.192;2023-05-19T09:27:20;99705.34;;;26.61;58.78
62201;BME280;48197;42.732;27.192;2023-05-19T09:29:48;99686.50;;;26.19;53.98
62201;BME280;48197;42.732;27.192;2023-05-19T09:32:25;99708.75;;;25.60;57.96
62201;BME280;48197;42.732;27.192;2023-05-19T09:34:53;99692.59;;;25.83;59.79
62201;BME280;48197;42.732;27.192;2023-05-19T09:37:23;99686.50;;;26.30;53.77
62201;BME280;48197;42.732;27.192;2023-05-19T10:10:54;99701.88;;;24.17;63.74
62201;BME280;48197;42.732;27.192;2023-05-19T10:13:21;99702.00;;;23.76;64.77
62201;BME280;48197;42.732;27.192;2023-05-19T10:15:49;99700.03;;;23.21;63.94
62201;BME280;48197;42.732;27.192;2023-05-19T10:18:17;99705.06;;;22.96;64.17
62201;BME280;48197;42.732;27.192;2023-05-19T10:20:45;99702.81;;;22.65;64.00
62201;BME280;48197;42.732;27.192;2023-05-19T10:23:13;99707.28;;;22.57;66.34
62201;BME280;48197;42.732;27.192;2023-05-19T10:25:41;99704.66;;;22.68;68.98
62201;BME280;48197;42.732;27.192;2023-05-19T10:28:12;99700.16;;;22.76;67.57
62201;BME280;48197;42.732;27.192;2023-05-19T10:30:47;99698.34;;;23.09;68.50
62201;BME280;48197;42.732;27.192;2023-05-19T10:33:15;99699.69;;;23.54;68.77
62201;BME280;48197;42.732;27.192;2023-05-19T10:38:25;99697.03;;;24.18;67.30
62201;BME280;48197;42.732;27.192;2023-05-19T10:40:56;99705.66;;;24.09;66.24
62201;BME280;48197;42.732;27.192;2023-05-19T10:46:11;99714.34;;;23.79;63.53
62201;BME280;48197;42.732;27.192;2023-05-19T10:48:38;99710.47;;;23.35;63.94
62201;BME280;48197;42.732;27.192;2023-05-19T10:51:09;99720.69;;;23.12;67.75
62201;BME280;48197;42.732;27.192;2023-05-19T10:53:40;99724.28;;;22.98;70.79
62201;BME280;48197;42.732;27.192;2023-05-19T10:56:07;99721.38;;;22.57;66.11
62201;BME280;48197;42.732;27.192;2023-05-19T11:01:16;99714.34;;;21.93;63.29
62201;BME280;48197;42.732;27.192;2023-05-19T11:03:46;99711.75;;;21.89;63.87
62201;BME280;48197;42.732;27.192;2023-05-19T11:06:30;99716.50;;;21.83;64.21
62201;BME280;48197;42.732;27.192;2023-05-19T11:09:02;99714.66;;;21.95;64.49
62201;BME280;48197;42.732;27.192;2023-05-19T11:14:13;99716.75;;;22.74;63.53
62201;BME280;48197;42.732;27.192;2023-05-19T11:16:39;99715.13;;;23.18;61.89
62201;BME280;48197;42.732;27.192;2023-05-19T11:19:24;99709.88;;;23.72;62.66
62201;BME280;48197;42.732;27.192;2023-05-19T11:21:52;99701.78;;;25.50;59.25
62201;BME280;48197;42.732;27.192;2023-05-19T11:29:54;99682.34;;;25.92;59.98
62201;BME280;48197;42.732;27.192;2023-05-19T11:32:22;99679.56;;;27.52;59.45
62201;BME280;48197;42.732;27.192;2023-05-19T11:34:51;99679.38;;;29.31;55.93
62201;BME280;48197;42.732;27.192;2023-05-19T11:37:19;99683.06;;;28.77;54.54
62201;BME280;48197;42.732;27.192;2023-05-19T11:39:45;99685.38;;;28.54;48.57
62201;BME280;48197;42.732;27.192;2023-05-19T11:42:12;99676.00;;;28.59;41.74
62201;BME280;48197;42.732;27.192;2023-05-19T11:44:39;99673.75;;;29.01;38.47
62201;BME280;48197;42.732;27.192;2023-05-19T11:47:11;99676.59;;;28.46;36.85
62201;BME280;48197;42.732;27.192;2023-05-19T12:01:48;99669.13;;;27.71;38.72
62201;BME280;48197;42.732;27.192;2023-05-19T12:04:15;99670.50;;;26.89;38.85
62201;BME280;48197;42.732;27.192;2023-05-19T12:06:42;99671.84;;;26.15;39.42
62201;BME280;48197;42.732;27.192;2023-05-19T12:09:09;99677.38;;;25.64;39.37
62201;BME280;48197;42.732;27.192;2023-05-19T12:11:36;99677.94;;;25.74;40.15
62201;BME280;48197;42.732;27.192;2023-05-19T12:14:03;99692.59;;;25.72;40.27
62201;BME280;48197;42.732;27.192;2023-05-19T12:16:33;99680.31;;;26.54;38.19
62201;BME280;48197;42.732;27.192;2023-05-19T12:19:03;99664.00;;;28.11;36.75
62201;BME280;48197;42.732;27.192;2023-05-19T12:21:31;99667.44;;;27.98;35.45
62201;BME280;48197;42.732;27.192;2023-05-19T12:23:58;99660.88;;;27.73;36.43
62201;BME280;48197;42.732;27.192;2023-05-19T12:26:25;99653.56;;;28.80;35.07
62201;BME280;48197;42.732;27.192;2023-05-19T12:28:52;99652.09;;;30.11;32.38
62201;BME280;48197;42.732;27.192;2023-05-19T12:31:20;99668.03;;;30.52;30.94
62201;BME280;48197;42.732;27.192;2023-05-19T12:33:50;99670.59;;;30.05;30.39
62201;BME280;48197;42.732;27.192;2023-05-19T12:36:17;99668.63;;;29.62;30.77
62201;BME280;48197;42.732;27.192;2023-05-19T12:38:44;99658.00;;;30.00;30.50
62201;BME280;48197;42.732;27.192;2023-05-19T12:41:13;99674.53;;;30.66;31.38
62201;BME280;48197;42.732;27.192;2023-05-19T12:43:40;99672.91;;;31.24;28.93
62201;BME280;48197;42.732;27.192;2023-05-19T12:46:10;99666.97;;;30.82;28.69
62201;BME280;48197;42.732;27.192;2023-05-19T12:48:40;99679.34;;;30.71;28.76
62201;BME280;48197;42.732;27.192;2023-05-19T12:51:07;99676.25;;;30.43;28.31
62201;BME280;48197;42.732;27.192;2023-05-19T12:53:34;99678.63;;;30.39;29.18
62201;BME280;48197;42.732;27.192;2023-05-19T12:56:08;99673.44;;;31.23;29.42
62201;BME280;48197;42.732;27.192;2023-05-19T12:58:36;99669.19;;;31.03;27.97
62201;BME280;48197;42.732;27.192;2023-05-19T13:01:04;99681.75;;;30.67;27.61
62201;BME280;48197;42.732;27.192;2023-05-19T13:03:31;99668.16;;;30.73;29.08
62201;BME280;48197;42.732;27.192;2023-05-19T13:05:58;99666.78;;;31.07;29.20
62201;BME280;48197;42.732;27.192;2023-05-19T13:08:25;99663.97;;;30.61;27.69
62201;BME280;48197;42.732;27.192;2023-05-19T13:10:53;99665.41;;;29.90;28.09
62201;BME280;48197;42.732;27.192;2023-05-19T13:13:21;99672.75;;;29.23;28.59
62201;BME280;48197;42.732;27.192;2023-05-19T13:15:48;99674.84;;;29.60;29.10
62201;BME280;48197;42.732;27.192;2023-05-19T13:18:15;99670.16;;;29.63;28.49
62201;BME280;48197;42.732;27.192;2023-05-19T13:20:43;99669.91;;;28.49;29.85
62201;BME280;48197;42.732;27.192;2023-05-19T13:23:10;99672.81;;;28.92;30.45
62201;BME280;48197;42.732;27.192;2023-05-19T13:25:37;99680.22;;;29.01;28.92
62201;BME280;48197;42.732;27.192;2023-05-19T13:28:04;99679.13;;;29.29;28.47
62201;BME280;48197;42.732;27.192;2023-05-19T13:30:32;99672.75;;;29.23;28.79
62201;BME280;48197;42.732;27.192;2023-05-19T13:33:00;99677.41;;;29.45;28.32
62201;BME280;48197;42.732;27.192;2023-05-19T13:35:27;99664.09;;;29.72;29.13
62201;BME280;48197;42.732;27.192;2023-05-19T13:37:54;99665.63;;;30.70;28.84
62201;BME280;48197;42.732;27.192;2023-05-19T13:40:21;99661.72;;;31.26;27.90
62201;BME280;48197;42.732;27.192;2023-05-19T13:42:49;99662.91;;;31.31;27.28
62201;BME280;48197;42.732;27.192;2023-05-19T13:45:15;99672.81;;;30.90;27.60
62201;BME280;48197;42.732;27.192;2023-05-19T13:47:42;99670.72;;;30.90;27.50
62201;BME280;48197;42.732;27.192;2023-05-19T13:50:09;99670.03;;;31.11;27.75
62201;BME280;48197;42.732;27.192;2023-05-19T13:52:36;99680.69;;;31.85;28.11
62201;BME280;48197;42.732;27.192;2023-05-19T13:55:04;99686.28;;;32.25;26.04
62201;BME280;48197;42.732;27.192;2023-05-19T13:57:31;99669.16;;;32.32;25.09
62201;BME280;48197;42.732;27.192;2023-05-19T13:59:58;99674.53;;;32.15;25.94
62201;BME280;48197;42.732;27.192;2023-05-19T14:02:26;99675.19;;;31.87;26.04
62201;BME280;48197;42.732;27.192;2023-05-19T14:04:53;99679.34;;;31.38;26.55
62201;BME280;48197;42.732;27.192;2023-05-19T14:07:20;99687.66;;;29.91;28.41
62201;BME280;48197;42.732;27.192;2023-05-19T14:09:47;99703.28;;;28.37;29.84
62201;BME280;48197;42.732;27.192;2023-05-19T14:12:16;99691.38;;;26.92;32.18
62201;BME280;48197;42.732;27.192;2023-05-19T14:14:43;99697.00;;;25.84;32.88
62201;BME280;48197;42.732;27.192;2023-05-19T14:17:10;99700.31;;;25.12;34.37